sensor_id;sensor_type;location;lat;lon;timestamp;temperature;humidity
53695;DHT22;39588;51.124;7.190;2023-02-12T00:02:15;7.50;99.90
53695;DHT22;39588;51.124;7.190;2023-02-12T00:04:40;7.50;99.90
53695;DHT22;39588;51.124;7.190;2023-02-12T00:24:08;7.50;99.90
53695;DHT22;39588;51.124;7.190;2023-02-12T00:26:34;7.50;99.90
53695;DHT22;39588;51.124;7.190;2023-02-12T00:29:00;7.50;99.90
53695;DHT22;39588;51.124;7.190;2023-02-12T00:31:28;7.50;99.90
53695;DHT22;39588;51.124;7.190;2023-02-12T00:33:55;7.50;99.90
53695;DHT22;39588;51.124;7.190;2023-02-12T00:36:23;7.50;99.90
53695;DHT22;39588;51.124;7.190;2023-02-12T00:38:54;7.50;99.90
53695;DHT22;39588;51.124;7.190;2023-02-12T00:41:21;7.40;99.90
53695;DHT22;39588;51.124;7.190;2023-02-12T00:43:47;7.40;99.90
53695;DHT22;39588;51.124;7.190;2023-02-12T00:46:13;7.40;99.90
53695;DHT22;39588;51.124;7.190;2023-02-12T01:00:51;7.40;99.90
53695;DHT22;39588;51.124;7.190;2023-02-12T01:03:17;7.40;99.90
53695;DHT22;39588;51.124;7.190;2023-02-12T01:05:43;7.30;99.90
53695;DHT22;39588;51.124;7.190;2023-02-12T01:08:11;7.40;99.90
53695;DHT22;39588;51.124;7.190;2023-02-12T01:10:38;7.30;99.90
53695;DHT22;39588;51.124;7.190;2023-02-12T01:13:03;7.30;99.90
53695;DHT22;39588;51.124;7.190;2023-02-12T01:17:55;7.30;99.90
53695;DHT22;39588;51.124;7.190;2023-02-12T01:20:23;7.20;99.90
53695;DHT22;39588;51.124;7.190;2023-02-12T01:22:49;7.30;99.90
53695;DHT22;39588;51.124;7.190;2023-02-12T01:25:15;7.30;99.90
53695;DHT22;39588;51.124;7.190;2023-02-12T01:27:41;7.30;99.90
53695;DHT22;39588;51.124;7.190;2023-02-12T01:30:09;7.30;99.90
53695;DHT22;39588;51.124;7.190;2023-02-12T01:32:35;7.30;99.90
53695;DHT22;39588;51.124;7.190;2023-02-12T01:35:01;7.30;99.90
53695;DHT22;39588;51.124;7.190;2023-02-12T01:37:27;7.20;99.90
53695;DHT22;39588;51.124;7.190;2023-02-12T01:47:40;7.20;99.90
53695;DHT22;39588;51.124;7.190;2023-02-12T01:50:09;7.20;99.90
53695;DHT22;39588;51.124;7.190;2023-02-12T01:52:37;7.20;99.90
53695;DHT22;39588;51.124;7.190;2023-02-12T01:55:07;7.20;99.90
53695;DHT22;39588;51.124;7.190;2023-02-12T01:57:36;7.20;99.90
53695;DHT22;39588;51.124;7.190;2023-02-12T02:00:07;7.20;99.90
53695;DHT22;39588;51.124;7.190;2023-02-12T02:02:33;7.20;99.90
53695;DHT22;39588;51.124;7.190;2023-02-12T02:05:02;7.20;99.90
53695;DHT22;39588;51.124;7.190;2023-02-12T02:07:28;7.20;99.90
53695;DHT22;39588;51.124;7.190;2023-02-12T02:09:55;7.20;99.90
53695;DHT22;39588;51.124;7.190;2023-02-12T02:29:21;7.20;99.90
53695;DHT22;39588;51.124;7.190;2023-02-12T02:32:02;7.20;99.90
53695;DHT22;39588;51.124;7.190;2023-02-12T02:34:39;7.20;99.90
53695;DHT22;39588;51.124;7.190;2023-02-12T02:39:40;7.20;99.90
53695;DHT22;39588;51.124;7.190;2023-02-12T02:42:23;7.20;99.90
53695;DHT22;39588;51.124;7.190;2023-02-12T02:44:54;7.30;99.90
53695;DHT22;39588;51.124;7.190;2023-02-12T02:47:37;7.30;99.90
53695;DHT22;39588;51.124;7.190;2023-02-12T02:50:09;7.30;99.90
53695;DHT22;39588;51.124;7.190;2023-02-12T02:55:07;8.00;99.90
53695;DHT22;39588;51.124;7.190;2023-02-12T02:57:40;7.30;99.90
53695;DHT22;39588;51.124;7.190;2023-02-12T03:02:37;7.30;99.90
53695;DHT22;39588;51.124;7.190;2023-02-12T03:07:49;7.30;99.90
53695;DHT22;39588;51.124;7.190;2023-02-12T03:10:19;7.30;99.90
53695;DHT22;39588;51.124;7.190;2023-02-12T03:13:01;7.30;99.90
53695;DHT22;39588;51.124;7.190;2023-02-12T03:15:43;7.30;99.90
53695;DHT22;39588;51.124;7.190;2023-02-12T03:20:44;7.30;99.90
53695;DHT22;39588;51.124;7.190;2023-02-12T03:23:16;7.30;99.90
53695;DHT22;39588;51.124;7.190;2023-02-12T03:28:30;7.30;99.90
53695;DHT22;39588;51.124;7.190;2023-02-12T03:33:57;7.20;99.90
53695;DHT22;39588;51.124;7.190;2023-02-12T03:39:14;7.20;99.90
53695;DHT22;39588;51.124;7.190;2023-02-12T03:41:45;7.20;99.90
53695;DHT22;39588;51.124;7.190;2023-02-12T03:47:08;7.20;99.90
53695;DHT22;39588;51.124;7.190;2023-02-12T03:49:48;7.20;99.90
53695;DHT22;39588;51.124;7.190;2023-02-12T03:52:16;7.20;99.90
53695;DHT22;39588;51.124;7.190;2023-02-12T03:54:41;7.20;99.90
53695;DHT22;39588;51.124;7.190;2023-02-12T03:57:11;7.20;99.90
53695;DHT22;39588;51.124;7.190;2023-02-12T03:59:38;7.20;99.90
53695;DHT22;39588;51.124;7.190;2023-02-12T04:02:04;7.20;99.90
53695;DHT22;39588;51.124;7.190;2023-02-12T04:04:30;7.20;99.90
53695;DHT22;39588;51.124;7.190;2023-02-12T04:06:56;7.20;99.90
53695;DHT22;39588;51.124;7.190;2023-02-12T04:09:24;7.20;99.90
53695;DHT22;39588;51.124;7.190;2023-02-12T04:20:04;7.20;99.90
53695;DHT22;39588;51.124;7.190;2023-02-12T04:36:23;7.20;99.90
53695;DHT22;39588;51.124;7.190;2023-02-12T04:48:51;7.30;99.90
53695;DHT22;39588;51.124;7.190;2023-02-12T04:51:17;7.30;99.90
53695;DHT22;39588;51.124;7.190;2023-02-12T04:56:12;7.30;99.90
53695;DHT22;39588;51.124;7.190;2023-02-12T04:58:39;7.30;99.90
53695;DHT22;39588;51.124;7.190;2023-02-12T05:06:02;7.30;99.90
53695;DHT22;39588;51.124;7.190;2023-02-12T05:08:28;7.30;99.90
53695;DHT22;39588;51.124;7.190;2023-02-12T05:18:11;7.30;99.90
53695;DHT22;39588;51.124;7.190;2023-02-12T05:20:37;7.30;99.90
53695;DHT22;39588;51.124;7.190;2023-02-12T05:23:02;7.30;99.90
53695;DHT22;39588;51.124;7.190;2023-02-12T05:42:33;7.30;99.90
53695;DHT22;39588;51.124;7.190;2023-02-12T05:59:34;7.30;99.90
53695;DHT22;39588;51.124;7.190;2023-02-12T06:02:00;7.30;99.90
53695;DHT22;39588;51.124;7.190;2023-02-12T06:04:27;7.30;99.90
53695;DHT22;39588;51.124;7.190;2023-02-12T06:09:20;7.30;99.90
53695;DHT22;39588;51.124;7.190;2023-02-12T06:11:46;7.20;99.90
53695;DHT22;39588;51.124;7.190;2023-02-12T06:21:32;7.20;99.90
53695;DHT22;39588;51.124;7.190;2023-02-12T06:28:52;7.30;99.90
53695;DHT22;39588;51.124;7.190;2023-02-12T06:31:24;7.30;99.90
53695;DHT22;39588;51.124;7.190;2023-02-12T06:36:17;7.30;99.90
53695;DHT22;39588;51.124;7.190;2023-02-12T06:41:09;7.30;99.90
53695;DHT22;39588;51.124;7.190;2023-02-12T06:43:35;7.30;99.90
53695;DHT22;39588;51.124;7.190;2023-02-12T06:46:01;7.00;99.90
53695;DHT22;39588;51.124;7.190;2023-02-12T06:51:15;7.30;99.90
53695;DHT22;39588;51.124;7.190;2023-02-12T06:53:42;7.30;99.90
53695;DHT22;39588;51.124;7.190;2023-02-12T06:58:36;7.30;99.90
53695;DHT22;39588;51.124;7.190;2023-02-12T07:01:09;7.30;99.90
53695;DHT22;39588;51.124;7.190;2023-02-12T07:03:39;7.30;99.90
53695;DHT22;39588;51.124;7.190;2023-02-12T07:15:49;7.40;99.90
53695;DHT22;39588;51.124;7.190;2023-02-12T07:18:15;7.50;99.90
53695;DHT22;39588;51.124;7.190;2023-02-12T07:30:28;7.60;99.90
53695;DHT22;39588;51.124;7.190;2023-02-12T07:32:54;7.60;99.90
53695;DHT22;39588;51.124;7.190;2023-02-12T07:35:19;7.60;99.90
53695;DHT22;39588;51.124;7.190;2023-02-12T07:37:45;7.60;99.90
53695;DHT22;39588;51.124;7.190;2023-02-12T07:40:11;7.70;99.90
53695;DHT22;39588;51.124;7.190;2023-02-12T07:59:38;7.80;99.90
53695;DHT22;39588;51.124;7.190;2023-02-12T08:02:04;7.90;99.90
53695;DHT22;39588;51.124;7.190;2023-02-12T08:06:56;7.90;99.90
53695;DHT22;39588;51.124;7.190;2023-02-12T08:09:26;7.90;99.90
53695;DHT22;39588;51.124;7.190;2023-02-12T08:11:52;7.90;99.90
53695;DHT22;39588;51.124;7.190;2023-02-12T08:14:19;7.90;99.90
53695;DHT22;39588;51.124;7.190;2023-02-12T08:16:46;8.00;99.90
53695;DHT22;39588;51.124;7.190;2023-02-12T08:19:13;8.50;99.90
53695;DHT22;39588;51.124;7.190;2023-02-12T08:21:39;8.00;99.90
53695;DHT22;39588;51.124;7.190;2023-02-12T08:24:04;8.10;99.90
53695;DHT22;39588;51.124;7.190;2023-02-12T08:26:35;8.10;99.90
53695;DHT22;39588;51.124;7.190;2023-02-12T08:29:13;8.20;99.90
53695;DHT22;39588;51.124;7.190;2023-02-12T08:31:41;8.20;99.90
53695;DHT22;39588;51.124;7.190;2023-02-12T08:34:17;8.20;99.90
53695;DHT22;39588;51.124;7.190;2023-02-12T08:36:43;8.30;99.90
53695;DHT22;39588;51.124;7.190;2023-02-12T08:39:09;8.30;99.90
53695;DHT22;39588;51.124;7.190;2023-02-12T08:41:35;8.30;99.90
53695;DHT22;39588;51.124;7.190;2023-02-12T08:44:03;8.40;99.90
53695;DHT22;39588;51.124;7.190;2023-02-12T08:46:31;8.40;99.90
53695;DHT22;39588;51.124;7.190;2023-02-12T08:49:00;8.50;99.90
53695;DHT22;39588;51.124;7.190;2023-02-12T08:51:28;8.60;99.90
53695;DHT22;39588;51.124;7.190;2023-02-12T08:54:00;8.60;99.90
53695;DHT22;39588;51.124;7.190;2023-02-12T08:56:28;8.70;99.90
53695;DHT22;39588;51.124;7.190;2023-02-12T08:58:57;8.70;99.90
53695;DHT22;39588;51.124;7.190;2023-02-12T09:01:25;8.80;99.90
53695;DHT22;39588;51.124;7.190;2023-02-12T09:03:51;8.90;99.90
53695;DHT22;39588;51.124;7.190;2023-02-12T09:06:18;8.90;99.90
53695;DHT22;39588;51.124;7.190;2023-02-12T09:08:45;9.00;99.90
53695;DHT22;39588;51.124;7.190;2023-02-12T09:11:16;9.10;99.90
53695;DHT22;39588;51.124;7.190;2023-02-12T09:13:43;9.00;99.90
53695;DHT22;39588;51.124;7.190;2023-02-12T09:16:10;9.00;99.90
53695;DHT22;39588;51.124;7.190;2023-02-12T09:18:36;9.00;99.90
53695;DHT22;39588;51.124;7.190;2023-02-12T09:21:07;9.00;99.90
53695;DHT22;39588;51.124;7.190;2023-02-12T09:23:33;9.00;99.90
53695;DHT22;39588;51.124;7.190;2023-02-12T09:26:02;9.10;99.90
53695;DHT22;39588;51.124;7.190;2023-02-12T09:35:47;9.40;99.30
53695;DHT22;39588;51.124;7.190;2023-02-12T09:38:13;9.30;99.50
53695;DHT22;39588;51.124;7.190;2023-02-12T09:43:46;9.30;99.60
53695;DHT22;39588;51.124;7.190;2023-02-12T09:47:07;9.20;99.40
53695;DHT22;39588;51.124;7.190;2023-02-12T09:50:00;9.10;99.70
53695;DHT22;39588;51.124;7.190;2023-02-12T09:52:28;9.30;99.90
53695;DHT22;39588;51.124;7.190;2023-02-12T09:54:55;9.40;99.60
53695;DHT22;39588;51.124;7.190;2023-02-12T09:57:35;9.40;99.40
53695;DHT22;39588;51.124;7.190;2023-02-12T10:00:10;9.50;99.40
53695;DHT22;39588;51.124;7.190;2023-02-12T10:02:38;9.50;99.40
53695;DHT22;39588;51.124;7.190;2023-02-12T10:05:08;9.60;99.20
53695;DHT22;39588;51.124;7.190;2023-02-12T10:10:38;9.70;99.10
53695;DHT22;39588;51.124;7.190;2023-02-12T10:21:55;10.10;98.80
53695;DHT22;39588;51.124;7.190;2023-02-12T10:26:50;10.00;98.40
53695;DHT22;39588;51.124;7.190;2023-02-12T10:29:24;10.00;98.40
53695;DHT22;39588;51.124;7.190;2023-02-12T10:31:58;10.00;98.30
53695;DHT22;39588;51.124;7.190;2023-02-12T10:34:29;10.00;98.60
53695;DHT22;39588;51.124;7.190;2023-02-12T10:37:01;10.10;98.40
53695;DHT22;39588;51.124;7.190;2023-02-12T10:39:32;10.00;98.50
53695;DHT22;39588;51.124;7.190;2023-02-12T10:42:40;10.00;98.50
53695;DHT22;39588;51.124;7.190;2023-02-12T10:45:13;10.10;98.50
53695;DHT22;39588;51.124;7.190;2023-02-12T10:47:39;10.10;98.60
53695;DHT22;39588;51.124;7.190;2023-02-12T10:50:17;10.10;98.60
53695;DHT22;39588;51.124;7.190;2023-02-12T10:52:48;10.20;98.50
53695;DHT22;39588;51.124;7.190;2023-02-12T10:55:24;10.20;98.60
53695;DHT22;39588;51.124;7.190;2023-02-12T10:57:51;10.30;98.60
53695;DHT22;39588;51.124;7.190;2023-02-12T11:00:24;10.30;98.50
53695;DHT22;39588;51.124;7.190;2023-02-12T11:03:05;10.30;98.50
53695;DHT22;39588;51.124;7.190;2023-02-12T11:05:33;10.30;98.40
53695;DHT22;39588;51.124;7.190;2023-02-12T11:10:45;10.20;98.20
53695;DHT22;39588;51.124;7.190;2023-02-12T11:13:25;10.20;98.20
53695;DHT22;39588;51.124;7.190;2023-02-12T11:15:52;10.20;98.30
53695;DHT22;39588;51.124;7.190;2023-02-12T11:18:26;10.20;98.40
53695;DHT22;39588;51.124;7.190;2023-02-12T11:21:01;10.20;98.30
53695;DHT22;39588;51.124;7.190;2023-02-12T11:23:37;10.10;98.40
53695;DHT22;39588;51.124;7.190;2023-02-12T11:28:35;10.10;98.70
53695;DHT22;39588;51.124;7.190;2023-02-12T11:31:03;10.20;98.60
53695;DHT22;39588;51.124;7.190;2023-02-12T11:33:41;10.30;98.60
53695;DHT22;39588;51.124;7.190;2023-02-12T11:36:25;10.30;98.20
53695;DHT22;39588;51.124;7.190;2023-02-12T11:38:56;10.30;98.20
53695;DHT22;39588;51.124;7.190;2023-02-12T11:46:23;10.40;98.00
53695;DHT22;39588;51.124;7.190;2023-02-12T11:48:50;10.30;98.20
53695;DHT22;39588;51.124;7.190;2023-02-12T11:51:28;10.30;98.40
53695;DHT22;39588;51.124;7.190;2023-02-12T11:53:56;10.40;98.40
53695;DHT22;39588;51.124;7.190;2023-02-12T11:56:23;10.50;98.50
53695;DHT22;39588;51.124;7.190;2023-02-12T11:58:50;10.60;98.20
53695;DHT22;39588;51.124;7.190;2023-02-12T12:01:42;10.60;98.10
53695;DHT22;39588;51.124;7.190;2023-02-12T12:04:12;10.60;97.90
53695;DHT22;39588;51.124;7.190;2023-02-12T12:06:45;10.70;98.20
53695;DHT22;39588;51.124;7.190;2023-02-12T12:12:05;10.70;97.90
53695;DHT22;39588;51.124;7.190;2023-02-12T12:14:56;10.80;98.00
53695;DHT22;39588;51.124;7.190;2023-02-12T12:17:55;10.90;98.10
53695;DHT22;39588;51.124;7.190;2023-02-12T12:20:51;11.10;97.90
53695;DHT22;39588;51.124;7.190;2023-02-12T12:23:37;11.10;97.80
53695;DHT22;39588;51.124;7.190;2023-02-12T12:26:13;11.10;97.80
53695;DHT22;39588;51.124;7.190;2023-02-12T12:28:44;11.00;97.70
53695;DHT22;39588;51.124;7.190;2023-02-12T12:33:55;11.00;98.00
53695;DHT22;39588;51.124;7.190;2023-02-12T12:37:01;11.20;98.00
53695;DHT22;39588;51.124;7.190;2023-02-12T12:52:33;11.40;97.40
53695;DHT22;39588;51.124;7.190;2023-02-12T13:06:40;11.30;97.60
53695;DHT22;39588;51.124;7.190;2023-02-12T13:09:19;11.20;97.90
53695;DHT22;39588;51.124;7.190;2023-02-12T13:14:50;11.20;97.70
53695;DHT22;39588;51.124;7.190;2023-02-12T13:17:35;11.10;97.90
53695;DHT22;39588;51.124;7.190;2023-02-12T13:20:22;11.20;97.90
53695;DHT22;39588;51.124;7.190;2023-02-12T13:22:58;11.30;98.10
53695;DHT22;39588;51.124;7.190;2023-02-12T13:28:28;11.30;97.60
53695;DHT22;39588;51.124;7.190;2023-02-12T13:30:55;11.30;97.70
53695;DHT22;39588;51.124;7.190;2023-02-12T13:34:12;11.30;97.60
53695;DHT22;39588;51.124;7.190;2023-02-12T13:36:13;11.20;97.60
53695;DHT22;39588;51.124;7.190;2023-02-12T13:38:47;11.20;97.80
53695;DHT22;39588;51.124;7.190;2023-02-12T13:41:16;11.20;98.00
53695;DHT22;39588;51.124;7.190;2023-02-12T13:55:04;11.20;97.80
53695;DHT22;39588;51.124;7.190;2023-02-12T13:57:35;11.30;97.80
53695;DHT22;39588;51.124;7.190;2023-02-12T14:00:01;11.30;97.90
53695;DHT22;39588;51.124;7.190;2023-02-12T14:07:50;11.00;98.00
53695;DHT22;39588;51.124;7.190;2023-02-12T14:10:34;10.90;98.00
53695;DHT22;39588;51.124;7.190;2023-02-12T14:13:14;10.90;97.90
53695;DHT22;39588;51.124;7.190;2023-02-12T14:15:42;10.80;97.90
53695;DHT22;39588;51.124;7.190;2023-02-12T14:18:35;10.80;98.00
53695;DHT22;39588;51.124;7.190;2023-02-12T14:23:39;10.80;98.10
53695;DHT22;39588;51.124;7.190;2023-02-12T14:26:14;10.80;98.10
53695;DHT22;39588;51.124;7.190;2023-02-12T14:28:48;10.70;98.20
53695;DHT22;39588;51.124;7.190;2023-02-12T14:33:49;10.80;98.20
53695;DHT22;39588;51.124;7.190;2023-02-12T14:36:35;10.80;98.10
53695;DHT22;39588;51.124;7.190;2023-02-12T14:39:26;10.90;98.00
53695;DHT22;39588;51.124;7.190;2023-02-12T14:41:55;10.90;97.80
53695;DHT22;39588;51.124;7.190;2023-02-12T14:52:17;10.90;97.60
53695;DHT22;39588;51.124;7.190;2023-02-12T14:59:56;10.60;97.30
53695;DHT22;39588;51.124;7.190;2023-02-12T15:05:37;10.50;97.40
53695;DHT22;39588;51.124;7.190;2023-02-12T15:11:24;10.40;97.70
53695;DHT22;39588;51.124;7.190;2023-02-12T15:19:26;10.40;97.80
53695;DHT22;39588;51.124;7.190;2023-02-12T15:21:54;10.30;97.90
53695;DHT22;39588;51.124;7.190;2023-02-12T15:24:23;10.20;97.90
53695;DHT22;39588;51.124;7.190;2023-02-12T15:26:50;10.20;98.10
53695;DHT22;39588;51.124;7.190;2023-02-12T15:29:30;10.20;98.20
53695;DHT22;39588;51.124;7.190;2023-02-12T15:32:03;10.20;98.10
53695;DHT22;39588;51.124;7.190;2023-02-12T15:34:32;10.20;98.10
53695;DHT22;39588;51.124;7.190;2023-02-12T15:37:00;10.30;98.20
53695;DHT22;39588;51.124;7.190;2023-02-12T15:39:27;10.20;98.10
53695;DHT22;39588;51.124;7.190;2023-02-12T15:41:57;10.20;98.10
53695;DHT22;39588;51.124;7.190;2023-02-12T15:44:28;10.10;98.00
53695;DHT22;39588;51.124;7.190;2023-02-12T15:49:30;10.10;98.20
53695;DHT22;39588;51.124;7.190;2023-02-12T15:51:56;10.00;98.20
53695;DHT22;39588;51.124;7.190;2023-02-12T15:54:23;10.00;98.30
53695;DHT22;39588;51.124;7.190;2023-02-12T15:56:49;10.00;98.30
53695;DHT22;39588;51.124;7.190;2023-02-12T15:59:20;10.00;98.30
53695;DHT22;39588;51.124;7.190;2023-02-12T16:01:58;10.00;98.40
53695;DHT22;39588;51.124;7.190;2023-02-12T16:04:30;10.00;98.40
53695;DHT22;39588;51.124;7.190;2023-02-12T16:06:58;9.90;98.80
53695;DHT22;39588;51.124;7.190;2023-02-12T16:09:34;9.90;98.90
53695;DHT22;39588;51.124;7.190;2023-02-12T16:12:07;9.90;98.80
53695;DHT22;39588;51.124;7.190;2023-02-12T16:14:40;9.90;98.90
53695;DHT22;39588;51.124;7.190;2023-02-12T16:17:32;9.90;98.90
53695;DHT22;39588;51.124;7.190;2023-02-12T16:20:20;9.90;98.90
53695;DHT22;39588;51.124;7.190;2023-02-12T16:22:47;9.80;98.90
53695;DHT22;39588;51.124;7.190;2023-02-12T16:25:20;9.80;98.80
53695;DHT22;39588;51.124;7.190;2023-02-12T16:30:35;9.70;98.90
53695;DHT22;39588;51.124;7.190;2023-02-12T16:43:47;9.50;98.90
53695;DHT22;39588;51.124;7.190;2023-02-12T16:46:14;9.50;99.00
53695;DHT22;39588;51.124;7.190;2023-02-12T16:48:49;9.50;99.00
53695;DHT22;39588;51.124;7.190;2023-02-12T16:53:46;9.50;99.10
53695;DHT22;39588;51.124;7.190;2023-02-12T16:56:16;9.50;99.10
53695;DHT22;39588;51.124;7.190;2023-02-12T16:58:43;9.40;99.00
53695;DHT22;39588;51.124;7.190;2023-02-12T17:01:15;9.40;99.00
53695;DHT22;39588;51.124;7.190;2023-02-12T17:03:43;9.30;99.10
53695;DHT22;39588;51.124;7.190;2023-02-12T17:06:09;9.30;99.10
53695;DHT22;39588;51.124;7.190;2023-02-12T17:08:35;9.20;99.20
53695;DHT22;39588;51.124;7.190;2023-02-12T17:11:01;9.20;99.30
53695;DHT22;39588;51.124;7.190;2023-02-12T17:15:55;9.20;99.40
53695;DHT22;39588;51.124;7.190;2023-02-12T17:18:21;9.20;99.40
53695;DHT22;39588;51.124;7.190;2023-02-12T17:20:59;9.20;99.30
53695;DHT22;39588;51.124;7.190;2023-02-12T17:23:25;9.10;99.30
53695;DHT22;39588;51.124;7.190;2023-02-12T17:25:51;9.10;99.40
53695;DHT22;39588;51.124;7.190;2023-02-12T17:28:17;9.10;99.40
53695;DHT22;39588;51.124;7.190;2023-02-12T17:30:43;9.20;99.40
53695;DHT22;39588;51.124;7.190;2023-02-12T17:33:09;9.20;99.30
53695;DHT22;39588;51.124;7.190;2023-02-12T17:35:37;9.20;99.30
53695;DHT22;39588;51.124;7.190;2023-02-12T17:45:22;9.20;99.40
53695;DHT22;39588;51.124;7.190;2023-02-12T17:47:48;9.10;99.40
53695;DHT22;39588;51.124;7.190;2023-02-12T17:50:14;9.10;99.20
53695;DHT22;39588;51.124;7.190;2023-02-12T17:52:41;9.10;99.30
53695;DHT22;39588;51.124;7.190;2023-02-12T17:55:09;9.10;99.40
53695;DHT22;39588;51.124;7.190;2023-02-12T17:57:36;9.10;99.30
53695;DHT22;39588;51.124;7.190;2023-02-12T18:00:06;9.10;99.30
53695;DHT22;39588;51.124;7.190;2023-02-12T18:02:32;9.20;99.30
53695;DHT22;39588;51.124;7.190;2023-02-12T18:07:23;9.10;99.30
53695;DHT22;39588;51.124;7.190;2023-02-12T18:09:49;9.00;99.30
53695;DHT22;39588;51.124;7.190;2023-02-12T18:12:15;9.10;99.30
53695;DHT22;39588;51.124;7.190;2023-02-12T18:14:40;9.00;99.30
53695;DHT22;39588;51.124;7.190;2023-02-12T18:24:24;8.90;99.40
53695;DHT22;39588;51.124;7.190;2023-02-12T18:26:50;8.90;99.50
53695;DHT22;39588;51.124;7.190;2023-02-12T18:29:15;8.90;99.40
53695;DHT22;39588;51.124;7.190;2023-02-12T18:31:41;8.90;99.50
53695;DHT22;39588;51.124;7.190;2023-02-12T18:41:30;9.00;99.50
53695;DHT22;39588;51.124;7.190;2023-02-12T18:43:57;8.90;99.40
53695;DHT22;39588;51.124;7.190;2023-02-12T18:46:25;9.00;99.50
53695;DHT22;39588;51.124;7.190;2023-02-12T18:48:52;9.00;99.40
53695;DHT22;39588;51.124;7.190;2023-02-12T18:51:21;8.90;99.40
53695;DHT22;39588;51.124;7.190;2023-02-12T18:53:53;8.90;99.50
53695;DHT22;39588;51.124;7.190;2023-02-12T18:56:20;8.90;99.50
53695;DHT22;39588;51.124;7.190;2023-02-12T19:01:17;8.80;99.60
53695;DHT22;39588;51.124;7.190;2023-02-12T19:03:45;8.80;99.60
53695;DHT22;39588;51.124;7.190;2023-02-12T19:06:11;8.80;99.70
53695;DHT22;39588;51.124;7.190;2023-02-12T19:08:37;8.80;99.70
53695;DHT22;39588;51.124;7.190;2023-02-12T19:11:05;8.80;99.70
53695;DHT22;39588;51.124;7.190;2023-02-12T19:13:31;8.80;99.70
53695;DHT22;39588;51.124;7.190;2023-02-12T19:15:56;8.80;99.70
53695;DHT22;39588;51.124;7.190;2023-02-12T19:18:22;8.80;99.70
53695;DHT22;39588;51.124;7.190;2023-02-12T19:20:48;8.80;99.70
53695;DHT22;39588;51.124;7.190;2023-02-12T19:23:14;8.80;99.70
53695;DHT22;39588;51.124;7.190;2023-02-12T19:28:10;8.80;99.80
53695;DHT22;39588;51.124;7.190;2023-02-12T19:30:38;8.80;99.80
53695;DHT22;39588;51.124;7.190;2023-02-12T19:33:05;8.70;99.80
53695;DHT22;39588;51.124;7.190;2023-02-12T19:45:15;8.60;99.90
53695;DHT22;39588;51.124;7.190;2023-02-12T19:47:41;8.60;99.90
53695;DHT22;39588;51.124;7.190;2023-02-12T19:50:07;8.70;99.90
53695;DHT22;39588;51.124;7.190;2023-02-12T19:57:25;8.70;99.90
53695;DHT22;39588;51.124;7.190;2023-02-12T19:59:51;8.70;99.90
53695;DHT22;39588;51.124;7.190;2023-02-12T20:02:16;8.70;99.90
53695;DHT22;39588;51.124;7.190;2023-02-12T20:04:42;8.70;99.90
53695;DHT22;39588;51.124;7.190;2023-02-12T20:07:08;8.70;99.90
53695;DHT22;39588;51.124;7.190;2023-02-12T20:09:34;8.70;99.90
53695;DHT22;39588;51.124;7.190;2023-02-12T20:12:00;8.70;99.90
53695;DHT22;39588;51.124;7.190;2023-02-12T20:14:26;8.70;99.90
53695;DHT22;39588;51.124;7.190;2023-02-12T20:16:54;8.70;99.90
53695;DHT22;39588;51.124;7.190;2023-02-12T20:19:29;8.70;99.90
53695;DHT22;39588;51.124;7.190;2023-02-12T20:21:56;8.70;99.90
53695;DHT22;39588;51.124;7.190;2023-02-12T20:24:27;8.70;99.90
53695;DHT22;39588;51.124;7.190;2023-02-12T20:26:57;8.70;99.90
53695;DHT22;39588;51.124;7.190;2023-02-12T20:29:23;8.70;99.90
53695;DHT22;39588;51.124;7.190;2023-02-12T20:31:48;8.70;99.90
53695;DHT22;39588;51.124;7.190;2023-02-12T20:34:16;8.70;99.90
53695;DHT22;39588;51.124;7.190;2023-02-12T20:36:43;8.80;99.90
53695;DHT22;39588;51.124;7.190;2023-02-12T20:39:14;8.70;99.90
53695;DHT22;39588;51.124;7.190;2023-02-12T20:41:40;8.70;99.90
53695;DHT22;39588;51.124;7.190;2023-02-12T20:44:10;8.70;99.90
53695;DHT22;39588;51.124;7.190;2023-02-12T20:46:36;8.80;99.90
53695;DHT22;39588;51.124;7.190;2023-02-12T20:49:04;8.80;99.90
53695;DHT22;39588;51.124;7.190;2023-02-12T20:51:30;8.80;99.90
53695;DHT22;39588;51.124;7.190;2023-02-12T20:53:58;8.80;99.90
53695;DHT22;39588;51.124;7.190;2023-02-12T20:56:27;8.80;99.90
53695;DHT22;39588;51.124;7.190;2023-02-12T20:58:53;8.70;99.90
53695;DHT22;39588;51.124;7.190;2023-02-12T21:01:24;8.80;99.90
53695;DHT22;39588;51.124;7.190;2023-02-12T21:03:53;8.70;99.90
53695;DHT22;39588;51.124;7.190;2023-02-12T21:06:20;8.70;99.90
53695;DHT22;39588;51.124;7.190;2023-02-12T21:08:46;8.70;99.90
53695;DHT22;39588;51.124;7.190;2023-02-12T21:11:14;8.70;99.90
53695;DHT22;39588;51.124;7.190;2023-02-12T21:13:44;8.70;99.90
53695;DHT22;39588;51.124;7.190;2023-02-12T21:16:15;8.70;99.90
53695;DHT22;39588;51.124;7.190;2023-02-12T21:18:41;8.70;99.90
53695;DHT22;39588;51.124;7.190;2023-02-12T21:21:11;8.70;99.90
53695;DHT22;39588;51.124;7.190;2023-02-12T21:23:37;8.70;99.90
53695;DHT22;39588;51.124;7.190;2023-02-12T21:26:14;8.70;99.90
53695;DHT22;39588;51.124;7.190;2023-02-12T21:28:41;8.70;99.90
53695;DHT22;39588;51.124;7.190;2023-02-12T21:31:22;8.70;99.90
53695;DHT22;39588;51.124;7.190;2023-02-12T21:33:49;8.70;99.90
53695;DHT22;39588;51.124;7.190;2023-02-12T21:36:20;8.70;99.90
53695;DHT22;39588;51.124;7.190;2023-02-12T21:38:48;8.70;99.90
53695;DHT22;39588;51.124;7.190;2023-02-12T21:41:22;8.70;99.90
53695;DHT22;39588;51.124;7.190;2023-02-12T21:43:50;8.60;99.90
53695;DHT22;39588;51.124;7.190;2023-02-12T21:46:17;8.60;99.90
53695;DHT22;39588;51.124;7.190;2023-02-12T21:48:43;8.60;99.90
53695;DHT22;39588;51.124;7.190;2023-02-12T21:51:27;8.60;99.90
53695;DHT22;39588;51.124;7.190;2023-02-12T21:53:56;8.60;99.90
53695;DHT22;39588;51.124;7.190;2023-02-12T21:56:22;8.60;99.90
53695;DHT22;39588;51.124;7.190;2023-02-12T21:58:48;8.60;99.90
53695;DHT22;39588;51.124;7.190;2023-02-12T22:01:16;8.60;99.90
53695;DHT22;39588;51.124;7.190;2023-02-12T22:03:42;8.50;99.90
53695;DHT22;39588;51.124;7.190;2023-02-12T22:11:06;8.50;99.90
53695;DHT22;39588;51.124;7.190;2023-02-12T22:13:32;8.50;99.90
53695;DHT22;39588;51.124;7.190;2023-02-12T22:16:22;8.50;99.90
53695;DHT22;39588;51.124;7.190;2023-02-12T22:18:49;8.50;99.90
53695;DHT22;39588;51.124;7.190;2023-02-12T22:21:16;8.40;99.90
53695;DHT22;39588;51.124;7.190;2023-02-12T22:23:43;8.50;99.90
53695;DHT22;39588;51.124;7.190;2023-02-12T22:26:14;8.40;99.90
53695;DHT22;39588;51.124;7.190;2023-02-12T22:28:45;8.40;99.90
53695;DHT22;39588;51.124;7.190;2023-02-12T22:31:13;8.40;99.90
53695;DHT22;39588;51.124;7.190;2023-02-12T22:33:44;8.30;99.90
53695;DHT22;39588;51.124;7.190;2023-02-12T22:36:09;8.30;99.90
53695;DHT22;39588;51.124;7.190;2023-02-12T22:38:36;8.30;99.90
53695;DHT22;39588;51.124;7.190;2023-02-12T22:41:03;8.30;99.90
53695;DHT22;39588;51.124;7.190;2023-02-12T22:43:30;8.30;99.90
53695;DHT22;39588;51.124;7.190;2023-02-12T22:45:56;8.40;99.90
53695;DHT22;39588;51.124;7.190;2023-02-12T22:58:06;8.20;99.90
53695;DHT22;39588;51.124;7.190;2023-02-12T23:00:33;8.20;99.90